sensor_id;sensor_type;location;lat;lon;timestamp;pressure;altitude;pressure_sealevel;temperature;humidity
19590;BME280;12231;42.782;23.388;2023-02-14T00:01:50;97068.66;;;-1.08;100.00
19590;BME280;12231;42.782;23.388;2023-02-14T00:04:16;97073.59;;;-1.20;100.00
19590;BME280;12231;42.782;23.388;2023-02-14T00:06:43;97060.03;;;-1.28;100.00
19590;BME280;12231;42.782;23.388;2023-02-14T00:09:14;97071.94;;;-1.18;100.00
19590;BME280;12231;42.782;23.388;2023-02-14T00:11:40;97085.44;;;-1.16;100.00
19590;BME280;12231;42.782;23.388;2023-02-14T00:14:06;97082.06;;;-1.15;100.00
19590;BME280;12231;42.782;23.388;2023-02-14T00:16:50;97081.19;;;-1.17;100.00
19590;BME280;12231;42.782;23.388;2023-02-14T00:19:17;97088.00;;;-1.13;100.00
19590;BME280;12231;42.782;23.388;2023-02-14T00:21:43;97078.66;;;-1.18;100.00
19590;BME280;12231;42.782;23.388;2023-02-14T00:24:11;97082.03;;;-1.18;100.00
19590;BME280;12231;42.782;23.388;2023-02-14T00:26:37;97085.44;;;-1.14;100.00
19590;BME280;12231;42.782;23.388;2023-02-14T00:29:05;97083.78;;;-1.12;100.00
19590;BME280;12231;42.782;23.388;2023-02-14T00:31:30;97078.75;;;-1.11;100.00
19590;BME280;12231;42.782;23.388;2023-02-14T00:33:55;97075.28;;;-1.20;100.00
19590;BME280;12231;42.782;23.388;2023-02-14T00:36:21;97065.13;;;-1.22;100.00
19590;BME280;12231;42.782;23.388;2023-02-14T00:38:46;97068.53;;;-1.18;100.00
19590;BME280;12231;42.782;23.388;2023-02-14T00:41:12;97076.06;;;-1.24;100.00
19590;BME280;12231;42.782;23.388;2023-02-14T00:43:52;97068.34;;;-1.37;100.00
19590;BME280;12231;42.782;23.388;2023-02-14T00:46:18;97070.09;;;-1.34;100.00
19590;BME280;12231;42.782;23.388;2023-02-14T00:48:45;97060.84;;;-1.33;100.00
19590;BME280;12231;42.782;23.388;2023-02-14T00:51:10;97061.66;;;-1.33;100.00
19590;BME280;12231;42.782;23.388;2023-02-14T00:53:36;97061.66;;;-1.31;100.00
19590;BME280;12231;42.782;23.388;2023-02-14T00:56:02;97060.00;;;-1.32;100.00
19590;BME280;12231;42.782;23.388;2023-02-14T00:58:28;97062.50;;;-1.34;100.00
19590;BME280;12231;42.782;23.388;2023-02-14T01:00:53;97052.38;;;-1.34;100.00
19590;BME280;12231;42.782;23.388;2023-02-14T01:03:19;97051.53;;;-1.34;100.00
19590;BME280;12231;42.782;23.388;2023-02-14T01:05:46;97054.91;;;-1.37;100.00
19590;BME280;12231;42.782;23.388;2023-02-14T01:08:11;97053.16;;;-1.41;100.00
19590;BME280;12231;42.782;23.388;2023-02-14T01:10:37;97048.13;;;-1.38;100.00
19590;BME280;12231;42.782;23.388;2023-02-14T01:13:02;97048.19;;;-1.35;100.00
19590;BME280;12231;42.782;23.388;2023-02-14T01:15:28;97048.97;;;-1.38;100.00
19590;BME280;12231;42.782;23.388;2023-02-14T01:17:54;97042.28;;;-1.32;100.00
19590;BME280;12231;42.782;23.388;2023-02-14T01:20:20;97035.56;;;-1.33;100.00
19590;BME280;12231;42.782;23.388;2023-02-14T01:22:45;97034.75;;;-1.26;100.00
19590;BME280;12231;42.782;23.388;2023-02-14T01:25:11;97036.44;;;-1.27;100.00
19590;BME280;12231;42.782;23.388;2023-02-14T01:27:37;97030.56;;;-1.24;100.00
19590;BME280;12231;42.782;23.388;2023-02-14T01:30:03;97028.06;;;-1.20;100.00
19590;BME280;12231;42.782;23.388;2023-02-14T01:32:32;97023.84;;;-1.22;100.00
19590;BME280;12231;42.782;23.388;2023-02-14T01:34:58;97017.94;;;-1.21;100.00
19590;BME280;12231;42.782;23.388;2023-02-14T01:37:24;97008.72;;;-1.16;100.00
19590;BME280;12231;42.782;23.388;2023-02-14T01:39:49;97006.19;;;-1.18;100.00
19590;BME280;12231;42.782;23.388;2023-02-14T01:42:15;97006.19;;;-1.18;100.00
19590;BME280;12231;42.782;23.388;2023-02-14T01:47:09;97003.59;;;-1.25;100.00
19590;BME280;12231;42.782;23.388;2023-02-14T01:49:47;97000.19;;;-1.30;100.00
19590;BME280;12231;42.782;23.388;2023-02-14T01:52:23;97003.50;;;-1.33;100.00
19590;BME280;12231;42.782;23.388;2023-02-14T01:54:58;97006.03;;;-1.33;100.00
19590;BME280;12231;42.782;23.388;2023-02-14T01:57:28;97012.72;;;-1.38;100.00
19590;BME280;12231;42.782;23.388;2023-02-14T01:59:58;97008.50;;;-1.41;100.00
19590;BME280;12231;42.782;23.388;2023-02-14T02:02:44;97011.84;;;-1.43;100.00
19590;BME280;12231;42.782;23.388;2023-02-14T02:05:11;97000.06;;;-1.43;100.00
19590;BME280;12231;42.782;23.388;2023-02-14T02:07:36;96998.25;;;-1.56;100.00
19590;BME280;12231;42.782;23.388;2023-02-14T02:10:04;96997.50;;;-1.47;100.00
19590;BME280;12231;42.782;23.388;2023-02-14T02:12:32;96994.13;;;-1.48;100.00
19590;BME280;12231;42.782;23.388;2023-02-14T02:15:00;96990.06;;;-1.33;100.00
19590;BME280;12231;42.782;23.388;2023-02-14T02:26:19;96972.59;;;-1.00;100.00
19590;BME280;12231;42.782;23.388;2023-02-14T02:32:32;96959.94;;;-1.03;100.00
19590;BME280;12231;42.782;23.388;2023-02-14T02:38:05;96961.03;;;-1.75;100.00
19590;BME280;12231;42.782;23.388;2023-02-14T02:40:41;96955.78;;;-1.91;100.00
19590;BME280;12231;42.782;23.388;2023-02-14T02:43:30;96952.59;;;-1.75;100.00
19590;BME280;12231;42.782;23.388;2023-02-14T02:51:38;96966.50;;;-2.13;100.00
19590;BME280;12231;42.782;23.388;2023-02-14T02:54:50;96973.44;;;-1.96;100.00
19590;BME280;12231;42.782;23.388;2023-02-14T02:57:23;96961.72;;;-1.89;100.00
19590;BME280;12231;42.782;23.388;2023-02-14T02:59:53;96965.91;;;-1.90;100.00
19590;BME280;12231;42.782;23.388;2023-02-14T03:04:53;96965.13;;;-1.87;100.00
19590;BME280;12231;42.782;23.388;2023-02-14T03:07:20;96963.41;;;-1.87;100.00
19590;BME280;12231;42.782;23.388;2023-02-14T03:10:05;96959.19;;;-1.91;100.00
19590;BME280;12231;42.782;23.388;2023-02-14T03:23:44;96931.38;;;-1.94;100.00
19590;BME280;12231;42.782;23.388;2023-02-14T03:26:23;96934.72;;;-1.95;100.00
19590;BME280;12231;42.782;23.388;2023-02-14T03:29:04;96931.31;;;-1.97;100.00
19590;BME280;12231;42.782;23.388;2023-02-14T03:34:35;96945.63;;;-1.99;100.00
19590;BME280;12231;42.782;23.388;2023-02-14T03:40:11;96932.88;;;-2.09;100.00
19590;BME280;12231;42.782;23.388;2023-02-14T03:42:46;96931.06;;;-2.21;100.00
19590;BME280;12231;42.782;23.388;2023-02-14T03:45:22;96926.88;;;-2.19;100.00
19590;BME280;12231;42.782;23.388;2023-02-14T03:47:50;96930.28;;;-2.17;100.00
19590;BME280;12231;42.782;23.388;2023-02-14T03:50:18;96920.00;;;-2.32;100.00
19590;BME280;12231;42.782;23.388;2023-02-14T03:52:46;96911.59;;;-2.32;100.00
19590;BME280;12231;42.782;23.388;2023-02-14T03:55:16;96909.03;;;-2.34;100.00
19590;BME280;12231;42.782;23.388;2023-02-14T04:00:13;96911.66;;;-2.28;100.00
19590;BME280;12231;42.782;23.388;2023-02-14T04:02:45;96907.38;;;-2.33;100.00
19590;BME280;12231;42.782;23.388;2023-02-14T04:05:15;96907.41;;;-2.30;100.00
19590;BME280;12231;42.782;23.388;2023-02-14T04:07:53;96912.44;;;-2.32;100.00
19590;BME280;12231;42.782;23.388;2023-02-14T04:10:20;96909.03;;;-2.35;100.00
19590;BME280;12231;42.782;23.388;2023-02-14T04:12:46;96914.97;;;-2.32;100.00
19590;BME280;12231;42.782;23.388;2023-02-14T04:15:13;96903.06;;;-2.43;100.00
19590;BME280;12231;42.782;23.388;2023-02-14T04:17:38;96898.00;;;-2.43;100.00
19590;BME280;12231;42.782;23.388;2023-02-14T04:20:22;96900.63;;;-2.36;100.00
19590;BME280;12231;42.782;23.388;2023-02-14T04:22:48;96896.41;;;-2.37;100.00
19590;BME280;12231;42.782;23.388;2023-02-14T04:25:15;96891.25;;;-2.49;100.00
19590;BME280;12231;42.782;23.388;2023-02-14T04:27:41;96899.69;;;-2.44;100.00
19590;BME280;12231;42.782;23.388;2023-02-14T04:30:07;96892.94;;;-2.46;100.00
19590;BME280;12231;42.782;23.388;2023-02-14T04:32:32;96897.09;;;-2.48;100.00
19590;BME280;12231;42.782;23.388;2023-02-14T04:34:58;96902.19;;;-2.44;100.00
19590;BME280;12231;42.782;23.388;2023-02-14T04:37:23;96889.56;;;-2.47;100.00
19590;BME280;12231;42.782;23.388;2023-02-14T04:39:48;96885.41;;;-2.40;100.00
19590;BME280;12231;42.782;23.388;2023-02-14T04:42:14;96885.41;;;-2.43;100.00
19590;BME280;12231;42.782;23.388;2023-02-14T04:44:40;96877.66;;;-2.58;100.00
19590;BME280;12231;42.782;23.388;2023-02-14T04:47:06;96879.44;;;-2.48;100.00
19590;BME280;12231;42.782;23.388;2023-02-14T04:49:32;96868.38;;;-2.61;100.00
19590;BME280;12231;42.782;23.388;2023-02-14T04:51:57;96881.88;;;-2.59;100.00
19590;BME280;12231;42.782;23.388;2023-02-14T04:54:23;96880.22;;;-2.55;100.00
19590;BME280;12231;42.782;23.388;2023-02-14T04:56:49;96881.94;;;-2.53;100.00
19590;BME280;12231;42.782;23.388;2023-02-14T04:59:14;96876.84;;;-2.56;100.00
19590;BME280;12231;42.782;23.388;2023-02-14T05:01:40;96879.41;;;-2.53;100.00
19590;BME280;12231;42.782;23.388;2023-02-14T05:04:06;96872.88;;;-2.34;100.00
19590;BME280;12231;42.782;23.388;2023-02-14T05:06:32;96872.97;;;-2.27;100.00
19590;BME280;12231;42.782;23.388;2023-02-14T05:08:58;96875.94;;;-2.62;100.00
19590;BME280;12231;42.782;23.388;2023-02-14T05:11:23;96876.06;;;-2.50;100.00
19590;BME280;12231;42.782;23.388;2023-02-14T05:13:49;96866.94;;;-2.39;100.00
19590;BME280;12231;42.782;23.388;2023-02-14T05:16:15;96869.47;;;-2.41;100.00
19590;BME280;12231;42.782;23.388;2023-02-14T05:18:40;96871.22;;;-2.31;100.00
19590;BME280;12231;42.782;23.388;2023-02-14T05:21:07;96867.13;;;-2.21;100.00
19590;BME280;12231;42.782;23.388;2023-02-14T05:23:32;96875.63;;;-2.15;100.00
19590;BME280;12231;42.782;23.388;2023-02-14T05:25:58;96868.88;;;-2.11;100.00
19590;BME280;12231;42.782;23.388;2023-02-14T05:28:23;96869.78;;;-2.05;100.00
19590;BME280;12231;42.782;23.388;2023-02-14T05:30:49;96866.50;;;-1.98;100.00
19590;BME280;12231;42.782;23.388;2023-02-14T05:33:15;96864.00;;;-1.96;100.00
19590;BME280;12231;42.782;23.388;2023-02-14T05:35:41;96866.50;;;-1.96;100.00
19590;BME280;12231;42.782;23.388;2023-02-14T05:38:06;96861.56;;;-1.87;100.00
19590;BME280;12231;42.782;23.388;2023-02-14T05:40:32;96862.41;;;-1.85;100.00
19590;BME280;12231;42.782;23.388;2023-02-14T05:42:57;96860.78;;;-1.77;100.00
19590;BME280;12231;42.782;23.388;2023-02-14T05:45:23;96857.50;;;-1.64;100.00
19590;BME280;12231;42.782;23.388;2023-02-14T05:47:49;96861.81;;;-1.51;100.00
19590;BME280;12231;42.782;23.388;2023-02-14T05:50:15;96856.88;;;-1.39;100.00
19590;BME280;12231;42.782;23.388;2023-02-14T05:52:41;96851.81;;;-1.36;100.00
19590;BME280;12231;42.782;23.388;2023-02-14T05:55:07;96864.34;;;-1.50;100.00
19590;BME280;12231;42.782;23.388;2023-02-14T05:57:32;96869.59;;;-1.28;100.00
19590;BME280;12231;42.782;23.388;2023-02-14T05:59:58;96857.03;;;-1.10;100.00
19590;BME280;12231;42.782;23.388;2023-02-14T06:02:23;96861.38;;;-0.90;100.00
19590;BME280;12231;42.782;23.388;2023-02-14T06:04:49;96861.47;;;-0.63;100.00
19590;BME280;12231;42.782;23.388;2023-02-14T06:07:15;96865.00;;;-0.25;100.00
19590;BME280;12231;42.782;23.388;2023-02-14T06:09:40;96865.88;;;0.09;100.00
19590;BME280;12231;42.782;23.388;2023-02-14T06:12:06;96868.44;;;0.44;100.00
19590;BME280;12231;42.782;23.388;2023-02-14T06:14:31;96868.41;;;0.84;100.00
19590;BME280;12231;42.782;23.388;2023-02-14T06:16:57;96880.25;;;0.27;100.00
19590;BME280;12231;42.782;23.388;2023-02-14T06:19:22;96884.47;;;0.20;100.00
19590;BME280;12231;42.782;23.388;2023-02-14T06:21:48;96884.47;;;0.59;100.00
19590;BME280;12231;42.782;23.388;2023-02-14T06:24:13;96876.84;;;0.85;100.00
19590;BME280;12231;42.782;23.388;2023-02-14T06:26:39;96883.56;;;1.10;100.00
19590;BME280;12231;42.782;23.388;2023-02-14T06:29:04;96880.91;;;1.48;99.87
19590;BME280;12231;42.782;23.388;2023-02-14T06:31:30;96879.91;;;1.82;98.74
19590;BME280;12231;42.782;23.388;2023-02-14T06:33:56;96880.50;;;2.20;98.14
19590;BME280;12231;42.782;23.388;2023-02-14T06:36:22;96881.16;;;2.50;96.11
19590;BME280;12231;42.782;23.388;2023-02-14T06:38:47;96886.84;;;2.79;95.64
19590;BME280;12231;42.782;23.388;2023-02-14T06:41:14;96887.25;;;3.24;94.52
19590;BME280;12231;42.782;23.388;2023-02-14T06:43:42;96886.97;;;3.51;92.21
19590;BME280;12231;42.782;23.388;2023-02-14T06:46:07;96874.94;;;3.62;90.50
19590;BME280;12231;42.782;23.388;2023-02-14T06:48:33;96867.81;;;3.86;89.57
19590;BME280;12231;42.782;23.388;2023-02-14T06:50:58;96864.84;;;4.15;89.76
19590;BME280;12231;42.782;23.388;2023-02-14T06:53:24;96860.25;;;4.38;87.73
19590;BME280;12231;42.782;23.388;2023-02-14T06:55:49;96855.69;;;4.58;86.86
19590;BME280;12231;42.782;23.388;2023-02-14T06:58:14;96854.44;;;4.82;86.53
19590;BME280;12231;42.782;23.388;2023-02-14T07:00:40;96851.97;;;5.24;86.46
19590;BME280;12231;42.782;23.388;2023-02-14T07:03:06;96847.88;;;5.58;84.33
19590;BME280;12231;42.782;23.388;2023-02-14T07:05:31;96825.06;;;5.91;84.58
19590;BME280;12231;42.782;23.388;2023-02-14T07:07:57;96832.50;;;6.73;81.45
19590;BME280;12231;42.782;23.388;2023-02-14T07:10:23;96831.31;;;7.18;79.69
19590;BME280;12231;42.782;23.388;2023-02-14T07:12:48;96829.34;;;7.58;76.84
19590;BME280;12231;42.782;23.388;2023-02-14T07:15:14;96842.34;;;7.52;75.09
19590;BME280;12231;42.782;23.388;2023-02-14T07:17:39;96841.00;;;7.70;74.86
19590;BME280;12231;42.782;23.388;2023-02-14T07:20:07;96833.19;;;7.73;73.93
19590;BME280;12231;42.782;23.388;2023-02-14T07:22:33;96827.91;;;7.79;73.41
19590;BME280;12231;42.782;23.388;2023-02-14T07:24:59;96829.91;;;7.97;73.74
19590;BME280;12231;42.782;23.388;2023-02-14T07:27:24;96829.56;;;8.09;73.07
19590;BME280;12231;42.782;23.388;2023-02-14T07:29:50;96829.56;;;8.09;72.56
19590;BME280;12231;42.782;23.388;2023-02-14T07:32:16;96823.44;;;7.85;77.49
19590;BME280;12231;42.782;23.388;2023-02-14T07:34:41;96818.97;;;7.92;78.16
19590;BME280;12231;42.782;23.388;2023-02-14T07:37:07;96819.56;;;7.72;77.53
19590;BME280;12231;42.782;23.388;2023-02-14T07:39:32;96819.47;;;7.75;76.23
19590;BME280;12231;42.782;23.388;2023-02-14T07:41:57;96820.03;;;7.56;75.23
19590;BME280;12231;42.782;23.388;2023-02-14T07:44:23;96827.72;;;7.25;76.50
19590;BME280;12231;42.782;23.388;2023-02-14T07:46:48;96833.00;;;6.87;77.25
19590;BME280;12231;42.782;23.388;2023-02-14T07:49:14;96837.06;;;6.95;77.53
19590;BME280;12231;42.782;23.388;2023-02-14T07:51:39;96841.22;;;6.31;80.15
19590;BME280;12231;42.782;23.388;2023-02-14T07:54:05;96840.22;;;5.14;88.24
19590;BME280;12231;42.782;23.388;2023-02-14T07:56:30;96838.56;;;5.12;91.97
19590;BME280;12231;42.782;23.388;2023-02-14T07:58:56;96835.28;;;5.05;93.73
19590;BME280;12231;42.782;23.388;2023-02-14T08:01:21;96834.66;;;4.43;99.25
19590;BME280;12231;42.782;23.388;2023-02-14T08:03:47;96832.97;;;4.92;96.85
19590;BME280;12231;42.782;23.388;2023-02-14T08:06:19;96845.34;;;4.66;96.83
19590;BME280;12231;42.782;23.388;2023-02-14T08:08:45;96840.25;;;4.66;97.50
19590;BME280;12231;42.782;23.388;2023-02-14T08:11:11;96843.00;;;4.54;97.90
19590;BME280;12231;42.782;23.388;2023-02-14T08:13:57;96841.34;;;4.51;96.68
19590;BME280;12231;42.782;23.388;2023-02-14T08:16:22;96842.31;;;4.43;97.78
19590;BME280;12231;42.782;23.388;2023-02-14T08:18:47;96843.84;;;4.54;100.00
19590;BME280;12231;42.782;23.388;2023-02-14T08:21:13;96856.53;;;4.60;97.03
19590;BME280;12231;42.782;23.388;2023-02-14T08:23:40;96852.53;;;4.43;99.14
19590;BME280;12231;42.782;23.388;2023-02-14T08:26:06;96849.97;;;4.43;97.81
19590;BME280;12231;42.782;23.388;2023-02-14T08:28:31;96854.50;;;4.26;97.78
19590;BME280;12231;42.782;23.388;2023-02-14T08:30:57;96843.19;;;4.42;99.41
19590;BME280;12231;42.782;23.388;2023-02-14T08:33:22;96843.81;;;5.04;94.47
19590;BME280;12231;42.782;23.388;2023-02-14T08:35:49;96843.75;;;5.09;91.64
19590;BME280;12231;42.782;23.388;2023-02-14T08:38:15;96846.41;;;5.47;89.81
19590;BME280;12231;42.782;23.388;2023-02-14T08:40:40;96851.66;;;5.84;88.05
19590;BME280;12231;42.782;23.388;2023-02-14T08:43:06;96851.97;;;6.45;85.66
19590;BME280;12231;42.782;23.388;2023-02-14T08:45:32;96837.72;;;6.33;84.49
19590;BME280;12231;42.782;23.388;2023-02-14T08:48:07;96841.97;;;6.36;85.01
19590;BME280;12231;42.782;23.388;2023-02-14T08:50:33;96847.44;;;6.89;81.55
19590;BME280;12231;42.782;23.388;2023-02-14T08:52:58;96842.53;;;7.14;80.44
19590;BME280;12231;42.782;23.388;2023-02-14T08:55:23;96849.41;;;7.75;78.36
19590;BME280;12231;42.782;23.388;2023-02-14T08:57:49;96849.38;;;8.33;76.01
19590;BME280;12231;42.782;23.388;2023-02-14T09:00:15;96848.72;;;8.80;73.56
19590;BME280;12231;42.782;23.388;2023-02-14T09:02:40;96844.09;;;8.39;73.99
19590;BME280;12231;42.782;23.388;2023-02-14T09:05:06;96828.38;;;8.48;74.64
19590;BME280;12231;42.782;23.388;2023-02-14T09:07:33;96840.69;;;8.91;72.32
19590;BME280;12231;42.782;23.388;2023-02-14T09:09:59;96835.59;;;8.89;72.58
19590;BME280;12231;42.782;23.388;2023-02-14T09:12:24;96827.38;;;8.78;74.51
19590;BME280;12231;42.782;23.388;2023-02-14T09:14:50;96827.00;;;10.09;69.16
19590;BME280;12231;42.782;23.388;2023-02-14T09:17:15;96830.06;;;10.18;67.56
19590;BME280;12231;42.782;23.388;2023-02-14T09:19:41;96832.38;;;8.83;71.10
19590;BME280;12231;42.782;23.388;2023-02-14T09:22:09;96826.34;;;9.08;70.28
19590;BME280;12231;42.782;23.388;2023-02-14T09:24:36;96837.38;;;8.61;71.55
19590;BME280;12231;42.782;23.388;2023-02-14T09:27:02;96834.47;;;8.44;73.38
19590;BME280;12231;42.782;23.388;2023-02-14T09:29:29;96845.47;;;8.20;73.46
19590;BME280;12231;42.782;23.388;2023-02-14T09:31:56;96836.03;;;7.93;73.78
19590;BME280;12231;42.782;23.388;2023-02-14T09:34:22;96836.69;;;7.41;77.68
19590;BME280;12231;42.782;23.388;2023-02-14T09:36:47;96834.59;;;7.23;77.81
19590;BME280;12231;42.782;23.388;2023-02-14T09:39:13;96838.75;;;7.59;76.95
19590;BME280;12231;42.782;23.388;2023-02-14T09:42:13;96838.88;;;7.23;77.60
19590;BME280;12231;42.782;23.388;2023-02-14T09:44:51;96827.00;;;7.20;78.08
19590;BME280;12231;42.782;23.388;2023-02-14T09:50:21;96826.72;;;6.98;78.84
19590;BME280;12231;42.782;23.388;2023-02-14T09:52:51;96816.97;;;7.42;76.67
19590;BME280;12231;42.782;23.388;2023-02-14T09:55:17;96817.72;;;6.50;81.03
19590;BME280;12231;42.782;23.388;2023-02-14T09:58:14;96810.69;;;7.53;77.86
19590;BME280;12231;42.782;23.388;2023-02-14T10:00:45;96812.88;;;7.94;75.37
19590;BME280;12231;42.782;23.388;2023-02-14T10:03:23;96807.75;;;8.23;74.40
19590;BME280;12231;42.782;23.388;2023-02-14T10:06:15;96819.03;;;9.45;69.26
19590;BME280;12231;42.782;23.388;2023-02-14T10:09:10;96814.13;;;9.15;69.19
19590;BME280;12231;42.782;23.388;2023-02-14T10:11:39;96810.47;;;8.97;69.74
19590;BME280;12231;42.782;23.388;2023-02-14T10:14:22;96809.47;;;8.49;71.04
19590;BME280;12231;42.782;23.388;2023-02-14T10:17:16;96807.50;;;8.02;73.01
19590;BME280;12231;42.782;23.388;2023-02-14T10:19:47;96802.63;;;8.22;72.52
19590;BME280;12231;42.782;23.388;2023-02-14T10:22:20;96799.69;;;8.06;73.39
19590;BME280;12231;42.782;23.388;2023-02-14T10:24:55;96798.38;;;7.35;75.61
19590;BME280;12231;42.782;23.388;2023-02-14T10:27:38;96789.94;;;7.30;76.47
19590;BME280;12231;42.782;23.388;2023-02-14T10:30:26;96791.44;;;8.24;74.26
19590;BME280;12231;42.782;23.388;2023-02-14T10:33:16;96794.06;;;7.94;75.04
19590;BME280;12231;42.782;23.388;2023-02-14T10:35:48;96800.09;;;8.20;72.66
19590;BME280;12231;42.782;23.388;2023-02-14T10:38:18;96784.69;;;8.20;72.71
19590;BME280;12231;42.782;23.388;2023-02-14T10:41:06;96792.72;;;8.10;73.72
19590;BME280;12231;42.782;23.388;2023-02-14T10:46:30;96795.28;;;6.60;79.36
19590;BME280;12231;42.782;23.388;2023-02-14T10:49:00;96800.53;;;6.54;80.32
19590;BME280;12231;42.782;23.388;2023-02-14T10:51:45;96788.31;;;6.65;79.85
19590;BME280;12231;42.782;23.388;2023-02-14T10:59:24;96783.34;;;5.89;83.39
19590;BME280;12231;42.782;23.388;2023-02-14T11:01:51;96784.63;;;6.06;82.66
19590;BME280;12231;42.782;23.388;2023-02-14T11:04:20;96794.25;;;5.97;82.73
19590;BME280;12231;42.782;23.388;2023-02-14T11:06:46;96788.22;;;5.58;85.08
19590;BME280;12231;42.782;23.388;2023-02-14T11:09:17;96794.28;;;5.95;83.85
19590;BME280;12231;42.782;23.388;2023-02-14T11:11:44;96793.91;;;5.72;84.36
19590;BME280;12231;42.782;23.388;2023-02-14T11:14:38;96787.31;;;6.00;83.27
19590;BME280;12231;42.782;23.388;2023-02-14T11:17:27;96786.34;;;6.06;82.58
19590;BME280;12231;42.782;23.388;2023-02-14T11:19:59;96787.56;;;5.90;83.40
19590;BME280;12231;42.782;23.388;2023-02-14T11:22:33;96783.78;;;5.66;83.83
19590;BME280;12231;42.782;23.388;2023-02-14T11:25:10;96779.59;;;5.63;82.92
19590;BME280;12231;42.782;23.388;2023-02-14T11:27:43;96765.84;;;5.68;82.46
19590;BME280;12231;42.782;23.388;2023-02-14T11:30:41;96761.09;;;5.91;80.50
19590;BME280;12231;42.782;23.388;2023-02-14T11:33:12;96771.19;;;5.98;81.26
19590;BME280;12231;42.782;23.388;2023-02-14T11:35:50;96765.47;;;5.46;81.50
19590;BME280;12231;42.782;23.388;2023-02-14T11:38:29;96769.53;;;5.56;82.06
19590;BME280;12231;42.782;23.388;2023-02-14T11:40:56;96765.59;;;5.80;80.91
19590;BME280;12231;42.782;23.388;2023-02-14T11:43:43;96764.97;;;6.07;78.61
19590;BME280;12231;42.782;23.388;2023-02-14T11:51:40;96748.59;;;5.77;79.53
19590;BME280;12231;42.782;23.388;2023-02-14T11:57:10;96751.31;;;5.31;82.43
19590;BME280;12231;42.782;23.388;2023-02-14T11:59:51;96741.09;;;5.31;80.78
19590;BME280;12231;42.782;23.388;2023-02-14T12:04:58;96730.13;;;6.03;79.66
19590;BME280;12231;42.782;23.388;2023-02-14T12:07:31;96732.19;;;5.89;79.30
19590;BME280;12231;42.782;23.388;2023-02-14T12:12:55;96724.16;;;6.02;77.49
19590;BME280;12231;42.782;23.388;2023-02-14T12:15:26;96724.31;;;5.96;77.44
19590;BME280;12231;42.782;23.388;2023-02-14T12:17:58;96732.47;;;5.74;78.04
19590;BME280;12231;42.782;23.388;2023-02-14T12:20:39;96722.47;;;5.63;79.24
19590;BME280;12231;42.782;23.388;2023-02-14T12:23:14;96718.88;;;5.72;78.58
19590;BME280;12231;42.782;23.388;2023-02-14T12:25:59;96720.56;;;5.73;78.23
19590;BME280;12231;42.782;23.388;2023-02-14T12:29:04;96712.50;;;5.52;79.55
19590;BME280;12231;42.782;23.388;2023-02-14T12:31:33;96715.09;;;5.51;79.40
19590;BME280;12231;42.782;23.388;2023-02-14T12:34:01;96705.59;;;5.57;79.55
19590;BME280;12231;42.782;23.388;2023-02-14T12:39:56;96709.66;;;5.64;79.18
19590;BME280;12231;42.782;23.388;2023-02-14T12:56:13;96710.47;;;5.67;78.88
19590;BME280;12231;42.782;23.388;2023-02-14T13:04:38;96704.34;;;5.74;78.89
19590;BME280;12231;42.782;23.388;2023-02-14T13:07:25;96698.94;;;5.87;78.51
19590;BME280;12231;42.782;23.388;2023-02-14T13:10:02;96703.50;;;5.73;78.95
19590;BME280;12231;42.782;23.388;2023-02-14T13:20:57;96687.59;;;5.60;79.71
19590;BME280;12231;42.782;23.388;2023-02-14T13:23:28;96690.81;;;5.69;79.91
19590;BME280;12231;42.782;23.388;2023-02-14T13:26:16;96682.41;;;6.00;78.50
19590;BME280;12231;42.782;23.388;2023-02-14T13:28:54;96686.28;;;5.80;78.89
19590;BME280;12231;42.782;23.388;2023-02-14T13:31:20;96686.84;;;5.94;78.92
19590;BME280;12231;42.782;23.388;2023-02-14T13:33:52;96681.16;;;5.81;79.31
19590;BME280;12231;42.782;23.388;2023-02-14T13:36:19;96682.16;;;5.76;79.34
19590;BME280;12231;42.782;23.388;2023-02-14T13:38:49;96676.50;;;5.61;80.56
19590;BME280;12231;42.782;23.388;2023-02-14T13:41:16;96680.78;;;5.59;81.06
19590;BME280;12231;42.782;23.388;2023-02-14T13:46:18;96687.47;;;5.67;81.26
19590;BME280;12231;42.782;23.388;2023-02-14T13:48:55;96689.13;;;5.31;82.67
19590;BME280;12231;42.782;23.388;2023-02-14T13:51:45;96695.63;;;5.45;81.88
19590;BME280;12231;42.782;23.388;2023-02-14T13:54:27;96696.47;;;5.46;82.22
19590;BME280;12231;42.782;23.388;2023-02-14T13:56:54;96700.94;;;5.36;82.75
19590;BME280;12231;42.782;23.388;2023-02-14T13:59:33;96700.19;;;5.31;82.95
19590;BME280;12231;42.782;23.388;2023-02-14T14:04:53;96695.81;;;5.36;82.61
19590;BME280;12231;42.782;23.388;2023-02-14T14:17:42;96694.88;;;5.40;83.25
19590;BME280;12231;42.782;23.388;2023-02-14T14:22:50;96693.75;;;5.52;83.55
19590;BME280;12231;42.782;23.388;2023-02-14T14:25:35;96690.31;;;5.53;82.55
19590;BME280;12231;42.782;23.388;2023-02-14T14:28:09;96679.81;;;5.28;83.97
19590;BME280;12231;42.782;23.388;2023-02-14T14:30:35;96665.75;;;5.47;83.39
19590;BME280;12231;42.782;23.388;2023-02-14T14:36:00;96676.72;;;5.52;83.23
19590;BME280;12231;42.782;23.388;2023-02-14T14:38:27;96667.50;;;5.45;83.25
19590;BME280;12231;42.782;23.388;2023-02-14T14:40:53;96672.16;;;5.65;82.83
19590;BME280;12231;42.782;23.388;2023-02-14T14:43:34;96677.00;;;5.77;81.93
19590;BME280;12231;42.782;23.388;2023-02-14T14:46:01;96668.66;;;5.68;82.54
19590;BME280;12231;42.782;23.388;2023-02-14T14:48:34;96672.19;;;5.63;82.72
19590;BME280;12231;42.782;23.388;2023-02-14T14:51:03;96675.72;;;5.58;82.38
19590;BME280;12231;42.782;23.388;2023-02-14T14:53:53;96664.78;;;5.51;82.80
19590;BME280;12231;42.782;23.388;2023-02-14T14:56:23;96680.31;;;5.44;83.74
19590;BME280;12231;42.782;23.388;2023-02-14T14:58:50;96677.88;;;5.39;83.35
19590;BME280;12231;42.782;23.388;2023-02-14T15:01:45;96682.97;;;5.39;83.35
19590;BME280;12231;42.782;23.388;2023-02-14T15:04:25;96675.34;;;5.38;83.96
19590;BME280;12231;42.782;23.388;2023-02-14T15:06:54;96678.97;;;5.28;84.17
19590;BME280;12231;42.782;23.388;2023-02-14T15:09:29;96679.13;;;5.20;84.58